Aérodrome :
LOGIN :

S'inscrire | Disclaimer

   EN    FR    IT 

 










Légende :    VFR   VFR Marginal   IFR   IFR Intensif   IFR Très Intensif
Visi : 
Plafond : 
>= 8 km
>= 3000ft
5 à 8 km
1000 à 3000 ft
1500m à 5 km
500 à 1000 ft
800 à 1500m
200 à 500 ft
< 800m
< 200 ft
Symboles :   Orages  Brouillard  Fortes neiges  Fortes précipitations  Vent > 20 kt
SIGMETs :   Divers  Orages  Givrage  Turbulence  Onde Orograph.  Cendres Volcan.







- Altitude de l'aérodrome : 302 ft
- Code IATA : MAH


LEMH - Menorca

DERNIER METAR :
  • 221800Z VRB01KT 9999 FEW040 24/19 Q1014

METARs EXPIRÉS :
  • 221730Z VRB01KT 9999 FEW040 23/20 Q1013
  • 221700Z 13009KT 110V170 9999 FEW030TCU SCT048 22/20 Q1013
  • 221630Z 07008KT 040V110 9999 -SHRA FEW025CB SCT048 21/20 Q1014 RETSRA
  • 221614Z 01008KT 340V040 7000 TSRA FEW025CB SCT048 21/20 Q1015
  • 221600Z 36022G33KT 300V040 5000 1500NW +TSRA FEW015 FEW025CB BKN045 22/19 Q1016
  • 221545Z 03018KT 360V070 9999 4800NW TS VCSH FEW030CB SCT045 25/17 Q1015
  • 221530Z 04012KT 9999 FEW025CB SCT040 26/17 Q1014

TAF AMD TAF LEMH
Valide du 22 à 15h jusqu'au 23 à 15h UTC


221547Z 2215/2315 04012KT 9999 FEW020 TX32/2312Z TN21/2305Z
TEMPO 2215/2217 03011G22KT
TEMPO 2215/2219 4000 TSRA SCT025CB
BECMG 2217/2219 33008KT
BECMG 2312/2314 27007KT
Pas de NOTAMs connus pour ce terrain.
1 SIGMET publié pour la FIR Barcelona (LECB) :
 
Orages noyés dans la masse
LECB SIGMET 10 VALID 221800/221900 LEVA
LECB BARCELONA FIR/UIR EMBD TS OBS AT 1759Z WI N4208 E00124 - N4157 E00323 - N4053 E00302 - N4049 E00127 - N4208 E00124 TOP FL360 MOV S NC=



MET'MAP, la Météo Aéronautique d'un coup d'oeil ! - Copyright ORBIFLY Décembre 2007 - Disclaimer

ORBIFLY MET'MAP TEAM :

Programmation & Développement : Alexandra Zaïnal
Conception & Développement : Baudouin d'Aumeries
Co-Programmation & Développement : Marc-Olivier Méhu
Soutien technique & logistique : Manuel Goepfert

Contact : metmap@orbifly.com




SOURCES & CREDITS :

   NOAA